createdAt,value
2023-02-14T00:02:03.400Z,2.14
2023-02-14T00:04:38.429Z,2.32
2023-02-14T00:07:05.710Z,2.17
2023-02-14T00:09:32.916Z,2.22
2023-02-14T00:11:59.585Z,2.16
2023-02-14T00:14:50.045Z,2.09
2023-02-14T00:17:19.897Z,2.24
2023-02-14T00:19:46.615Z,2.20
2023-02-14T00:22:13.155Z,2.14
2023-02-14T00:24:41.975Z,2.15
2023-02-14T00:27:08.724Z,2.11
2023-02-14T00:29:41.038Z,2.05
2023-02-14T00:32:07.531Z,2.24
2023-02-14T00:34:36.376Z,2.18
2023-02-14T00:37:03.812Z,2.20
2023-02-14T00:39:33.306Z,2.24
2023-02-14T00:41:59.719Z,2.21
2023-02-14T00:44:30.897Z,2.12
2023-02-14T00:46:57.507Z,2.08
2023-02-14T00:49:23.881Z,2.13
2023-02-14T00:51:50.582Z,2.08
2023-02-14T00:54:17.195Z,2.04
2023-02-14T00:56:45.916Z,1.95
2023-02-14T00:59:14.734Z,1.75
2023-02-14T01:01:41.200Z,1.66
2023-02-14T01:04:18.290Z,1.55
2023-02-14T01:06:44.832Z,1.43
2023-02-14T01:09:11.283Z,1.28
2023-02-14T01:11:38.676Z,1.14
2023-02-14T01:14:06.564Z,1.08
2023-02-14T01:16:33.315Z,1.00
2023-02-14T01:19:00.974Z,0.88
2023-02-14T01:21:38.698Z,0.76
2023-02-14T01:24:08.677Z,0.70
2023-02-14T01:26:36.226Z,0.59
2023-02-14T01:29:06.798Z,0.52
2023-02-14T01:31:35.792Z,0.44
2023-02-14T01:34:03.294Z,0.36
2023-02-14T01:36:51.318Z,0.29
2023-02-14T01:39:18.669Z,0.22
2023-02-14T01:41:56.048Z,0.21
2023-02-14T01:44:28.053Z,0.10
2023-02-14T01:46:56.504Z,0.02
2023-02-14T01:49:34.976Z,-0.04
2023-02-14T01:52:10.163Z,-0.10
2023-02-14T01:55:08.560Z,-0.17
2023-02-14T01:57:49.386Z,-0.20
2023-02-14T02:00:35.723Z,-0.20
2023-02-14T02:03:10.144Z,-0.27
2023-02-14T02:05:51.709Z,-0.36
2023-02-14T02:08:18.248Z,-0.36
2023-02-14T02:10:44.930Z,-0.36
2023-02-14T02:13:21.982Z,-0.43
2023-02-14T02:16:08.196Z,-0.52
2023-02-14T02:18:49.826Z,-0.56
2023-02-14T02:21:31.624Z,-0.54
2023-02-14T02:24:09.350Z,-0.57
2023-02-14T02:27:12.916Z,-0.65
2023-02-14T02:29:57.466Z,-0.64
2023-02-14T02:32:45.661Z,-0.72
2023-02-14T02:35:46.217Z,-0.72
2023-02-14T02:38:36.664Z,-0.76
2023-02-14T02:41:23.966Z,-0.76
2023-02-14T02:44:16.873Z,-0.73
2023-02-14T02:46:55.829Z,-0.70
2023-02-14T02:50:11.967Z,-0.78
2023-02-14T02:53:13.947Z,-0.69
2023-02-14T02:56:01.787Z,-0.76
2023-02-14T02:58:57.632Z,-0.66
2023-02-14T03:01:30.104Z,-0.69
2023-02-14T03:04:23.759Z,-0.64
2023-02-14T03:06:58.903Z,-0.60
2023-02-14T03:09:28.389Z,-0.57
2023-02-14T03:12:10.059Z,-0.41
2023-02-14T03:14:52.157Z,-0.45
2023-02-14T03:17:29.608Z,-0.40
2023-02-14T03:20:36.956Z,-0.50
2023-02-14T03:23:17.073Z,-0.40
2023-02-14T03:25:52.848Z,-0.46
2023-02-14T03:28:37.979Z,-0.51
2023-02-14T03:31:15.672Z,-0.51
2023-02-14T03:33:59.154Z,-0.47
2023-02-14T03:36:32.858Z,-0.50
2023-02-14T03:39:05.407Z,-0.48
2023-02-14T03:41:40.861Z,-0.61
2023-02-14T03:44:11.402Z,-0.61
2023-02-14T03:46:53.178Z,-0.79
2023-02-14T03:49:28.194Z,-0.78
2023-02-14T03:51:57.282Z,-0.85
2023-02-14T03:54:33.164Z,-0.88
2023-02-14T03:57:14.932Z,-0.84
2023-02-14T03:59:43.681Z,-0.84
2023-02-14T04:02:26.985Z,-0.88
2023-02-14T04:04:56.550Z,-0.83
2023-02-14T04:07:24.034Z,-0.75
2023-02-14T04:10:16.670Z,-0.86
2023-02-14T04:12:47.223Z,-0.86
2023-02-14T04:15:16.708Z,-0.73
2023-02-14T04:18:04.966Z,-0.64
2023-02-14T04:20:31.580Z,-0.62
2023-02-14T04:22:58.199Z,-0.73
2023-02-14T04:25:25.472Z,-0.74
2023-02-14T04:27:52.003Z,-0.60
2023-02-14T04:30:20.802Z,-0.62
2023-02-14T04:32:47.674Z,-0.65
2023-02-14T04:35:17.530Z,-0.65
2023-02-14T04:37:47.886Z,-0.84
2023-02-14T04:40:19.766Z,-0.94
2023-02-14T04:42:49.434Z,-0.98
2023-02-14T04:45:22.598Z,-1.00
2023-02-14T04:47:51.456Z,-1.15
2023-02-14T04:50:17.972Z,-1.13
2023-02-14T04:52:46.737Z,-1.12
2023-02-14T04:55:13.445Z,-1.09
2023-02-14T04:57:40.213Z,-1.15
2023-02-14T05:00:08.198Z,-1.12
2023-02-14T05:02:37.391Z,-1.21
2023-02-14T05:05:04.238Z,-1.06
2023-02-14T05:07:30.868Z,-1.12
2023-02-14T05:10:00.263Z,-1.17
2023-02-14T05:12:27.253Z,-1.20
2023-02-14T05:14:53.802Z,-1.19
2023-02-14T05:17:20.446Z,-1.00
2023-02-14T05:19:49.572Z,-1.10
2023-02-14T05:22:23.066Z,-1.16
2023-02-14T05:25:07.899Z,-1.18
2023-02-14T05:27:42.905Z,-1.07
2023-02-14T05:30:10.365Z,-1.13
2023-02-14T05:32:37.128Z,-1.18
2023-02-14T05:35:07.054Z,-1.12
2023-02-14T05:37:34.825Z,-1.06
2023-02-14T05:40:01.400Z,-1.21
2023-02-14T05:42:27.885Z,-1.11
2023-02-14T05:44:54.532Z,-1.12
2023-02-14T05:47:33.185Z,-1.22
2023-02-14T05:49:59.951Z,-1.27
2023-02-14T05:52:26.835Z,-1.25
2023-02-14T05:54:58.132Z,-1.31
2023-02-14T05:57:26.854Z,-1.34
2023-02-14T05:59:55.589Z,-1.31
2023-02-14T06:02:24.413Z,-1.38
2023-02-14T06:04:56.841Z,-1.34
2023-02-14T06:07:33.380Z,-1.40
2023-02-14T06:09:59.834Z,-1.40
2023-02-14T06:12:26.311Z,-1.47
2023-02-14T06:14:52.883Z,-1.44
2023-02-14T06:17:26.867Z,-1.41
2023-02-14T06:19:58.288Z,-1.47
2023-02-14T06:22:24.746Z,-1.42
2023-02-14T06:24:51.162Z,-1.47
2023-02-14T06:27:19.808Z,-1.51
2023-02-14T06:29:48.655Z,-1.50
2023-02-14T06:32:15.208Z,-1.41
2023-02-14T06:34:41.815Z,-1.41
2023-02-14T06:37:17.620Z,-1.39
2023-02-14T06:39:53.924Z,-1.46
2023-02-14T06:42:20.583Z,-1.48
2023-02-14T06:44:47.073Z,-1.49
2023-02-14T06:47:13.858Z,-1.39
2023-02-14T06:49:42.867Z,-1.36
2023-02-14T06:52:11.869Z,-1.40
2023-02-14T06:54:38.301Z,-1.35
2023-02-14T06:57:07.012Z,-1.39
2023-02-14T06:59:33.572Z,-1.36
2023-02-14T07:02:00.283Z,-1.29
2023-02-14T07:04:29.951Z,-1.29
2023-02-14T07:06:57.222Z,-1.18
2023-02-14T07:09:24.001Z,-1.17
2023-02-14T07:11:50.730Z,-1.07
2023-02-14T07:14:17.218Z,-1.01
2023-02-14T07:16:44.030Z,-0.81
2023-02-14T07:19:10.456Z,-0.69
2023-02-14T07:21:44.343Z,-0.50
2023-02-14T07:24:10.793Z,-0.28
2023-02-14T07:26:37.367Z,0.08
2023-02-14T07:29:12.893Z,0.13
2023-02-14T07:31:42.186Z,0.27
2023-02-14T07:34:19.918Z,0.37
2023-02-14T07:36:49.119Z,0.51
2023-02-14T07:39:27.001Z,0.65
2023-02-14T07:41:53.701Z,0.58
2023-02-14T07:44:22.984Z,0.53
2023-02-14T07:46:52.587Z,0.62
2023-02-14T07:49:19.071Z,0.76
2023-02-14T07:51:48.055Z,0.79
2023-02-14T07:54:14.577Z,0.85
2023-02-14T07:56:42.430Z,0.89
2023-02-14T07:59:08.976Z,0.94
2023-02-14T08:01:35.897Z,1.07
2023-02-14T08:04:03.247Z,1.07
2023-02-14T08:06:29.856Z,1.11
2023-02-14T08:08:56.466Z,1.16
2023-02-14T08:11:44.349Z,1.23
2023-02-14T08:14:22.010Z,1.28
2023-02-14T08:16:50.875Z,1.24
2023-02-14T08:19:17.504Z,1.32
2023-02-14T08:21:49.404Z,1.29
2023-02-14T08:24:21.609Z,1.23
2023-02-14T08:26:48.366Z,1.35
2023-02-14T08:29:16.825Z,1.37
2023-02-14T08:31:43.372Z,1.30
2023-02-14T08:34:20.227Z,1.41
2023-02-14T08:36:52.288Z,1.53
2023-02-14T08:39:21.654Z,1.52
2023-02-14T08:41:50.654Z,1.54
2023-02-14T08:44:17.309Z,1.66
2023-02-14T08:46:46.302Z,1.66
2023-02-14T08:49:12.892Z,1.65
2023-02-14T08:51:39.538Z,1.68
2023-02-14T08:54:06.169Z,1.76
2023-02-14T08:56:36.518Z,1.73
2023-02-14T08:59:03.244Z,1.77
2023-02-14T09:01:30.011Z,1.77
2023-02-14T09:03:59.565Z,1.76
2023-02-14T09:06:28.457Z,1.86
2023-02-14T09:09:02.569Z,1.86
2023-02-14T09:11:35.131Z,1.99
2023-02-14T09:14:01.491Z,1.92
2023-02-14T09:16:28.494Z,2.06
2023-02-14T09:18:56.744Z,1.91
2023-02-14T09:21:26.626Z,2.15
2023-02-14T09:23:53.796Z,2.06
2023-02-14T09:26:22.482Z,2.22
2023-02-14T09:28:48.963Z,2.41
2023-02-14T09:31:21.678Z,2.56
2023-02-14T09:33:49.843Z,2.66
2023-02-14T09:36:16.489Z,2.78
2023-02-14T09:38:46.495Z,2.66
2023-02-14T09:41:33.420Z,2.70
2023-02-14T09:44:06.473Z,2.68
2023-02-14T09:46:42.776Z,2.82
2023-02-14T09:49:17.878Z,2.86
2023-02-14T09:51:51.030Z,2.76
2023-02-14T09:58:13.596Z,3.12
2023-02-14T10:00:55.875Z,3.19
2023-02-14T10:03:45.710Z,3.20
2023-02-14T10:06:15.879Z,3.34
2023-02-14T10:08:46.631Z,3.07
2023-02-14T10:11:20.446Z,3.37
2023-02-14T10:13:59.760Z,3.27
2023-02-14T10:16:35.126Z,3.36
2023-02-14T10:19:26.287Z,3.42
2023-02-14T10:22:13.522Z,3.47
2023-02-14T10:24:50.909Z,3.20
2023-02-14T10:27:55.772Z,3.55
2023-02-14T10:30:27.124Z,3.64
2023-02-14T10:33:04.512Z,3.60
2023-02-14T10:35:54.385Z,3.70
2023-02-14T10:38:23.737Z,3.52
2023-02-14T10:41:05.941Z,3.77
2023-02-14T10:43:40.578Z,3.87
2023-02-14T10:46:35.043Z,3.74
2023-02-14T10:49:51.124Z,3.66
2023-02-14T10:52:29.828Z,3.81
2023-02-14T10:55:00.193Z,3.68
2023-02-14T10:57:35.316Z,3.64
2023-02-14T11:00:06.798Z,3.87
2023-02-14T11:03:10.940Z,3.79
2023-02-14T11:05:46.932Z,3.71
2023-02-14T11:08:33.494Z,3.92
2023-02-14T11:11:40.800Z,4.13
2023-02-14T11:14:28.846Z,4.27
2023-02-14T11:16:59.235Z,4.31
2023-02-14T11:19:30.926Z,4.19
2023-02-14T11:22:02.826Z,3.99
2023-02-14T11:24:42.343Z,4.11
2023-02-14T11:27:11.591Z,4.39
2023-02-14T11:29:40.836Z,4.32
2023-02-14T11:32:11.664Z,4.38
2023-02-14T11:35:11.208Z,4.30
2023-02-14T11:37:56.324Z,4.56
2023-02-14T11:40:40.407Z,4.63
2023-02-14T11:43:15.653Z,4.68
2023-02-14T11:45:49.177Z,4.43
2023-02-14T11:48:37.744Z,4.23
2023-02-14T11:51:14.784Z,4.47
2023-02-14T11:53:51.965Z,4.32
2023-02-14T11:56:21.178Z,4.61
2023-02-14T11:59:06.961Z,4.59
2023-02-14T12:01:36.390Z,4.58
2023-02-14T12:04:17.693Z,4.65
2023-02-14T12:06:45.893Z,4.51
2023-02-14T12:09:29.455Z,4.58
2023-02-14T12:12:02.076Z,4.48
2023-02-14T12:14:36.260Z,4.47
2023-02-14T12:17:12.901Z,4.68
2023-02-14T12:19:49.038Z,4.53
2023-02-14T12:23:10.792Z,4.50
2023-02-14T12:25:48.504Z,4.68
2023-02-14T12:28:28.350Z,4.81
2023-02-14T12:30:55.227Z,4.83
2023-02-14T12:33:37.372Z,5.18
2023-02-14T12:36:16.931Z,5.10
2023-02-14T12:39:01.351Z,5.17
2023-02-14T12:42:09.014Z,5.10
2023-02-14T12:44:44.702Z,5.08
2023-02-14T12:47:27.529Z,5.14
2023-02-14T12:50:15.629Z,5.25
2023-02-14T12:53:19.541Z,5.05
2023-02-14T12:56:17.403Z,5.34
2023-02-14T12:59:02.310Z,5.36
2023-02-14T13:02:05.246Z,5.20
2023-02-14T13:04:46.873Z,4.84
2023-02-14T13:07:37.764Z,5.33
2023-02-14T13:10:13.455Z,4.95
2023-02-14T13:13:02.243Z,5.30
2023-02-14T13:15:59.686Z,5.19
2023-02-14T13:18:39.767Z,5.38
2023-02-14T13:21:10.498Z,5.41
2023-02-14T13:23:45.084Z,5.24
2023-02-14T13:26:21.739Z,5.36
2023-02-14T13:29:04.064Z,5.25
2023-02-14T13:31:33.882Z,5.40
2023-02-14T13:34:33.646Z,5.30
2023-02-14T13:37:03.698Z,5.40
2023-02-14T13:39:38.792Z,5.47
2023-02-14T13:42:08.634Z,5.42
2023-02-14T13:44:52.708Z,5.56
2023-02-14T13:47:26.365Z,5.50
2023-02-14T13:50:03.407Z,5.37
2023-02-14T13:52:49.050Z,5.42
2023-02-14T13:55:32.422Z,5.73
2023-02-14T13:58:18.311Z,5.83
2023-02-14T14:00:49.858Z,5.87
2023-02-14T14:03:28.937Z,5.96
2023-02-14T14:06:03.559Z,5.92
2023-02-14T14:08:31.511Z,5.94
2023-02-14T14:11:02.805Z,5.80
2023-02-14T14:13:45.150Z,5.91
2023-02-14T14:16:28.652Z,5.78
2023-02-14T14:19:19.929Z,5.72
2023-02-14T14:22:09.307Z,5.57
2023-02-14T14:24:36.863Z,5.71
2023-02-14T14:27:46.574Z,5.60
2023-02-14T14:30:29.230Z,5.47
2023-02-14T14:33:13.973Z,5.42
2023-02-14T14:35:51.651Z,5.56
2023-02-14T14:38:23.974Z,5.55
2023-02-14T14:40:50.846Z,5.34
2023-02-14T14:43:39.459Z,5.11
2023-02-14T14:46:15.828Z,5.08
2023-02-14T14:48:51.480Z,5.03
2023-02-14T14:51:29.941Z,4.95
2023-02-14T14:54:04.731Z,4.90
2023-02-14T14:56:36.702Z,4.85
2023-02-14T14:59:54.017Z,4.76
2023-02-14T15:02:23.899Z,4.73
2023-02-14T15:04:50.530Z,4.75
2023-02-14T15:07:30.273Z,4.68
2023-02-14T15:09:59.012Z,4.65
2023-02-14T15:12:46.045Z,4.64
2023-02-14T15:15:17.034Z,4.56
2023-02-14T15:17:49.130Z,4.50
2023-02-14T15:20:29.292Z,4.44
2023-02-14T15:22:59.662Z,4.36
2023-02-14T15:25:34.011Z,4.29
2023-02-14T15:28:03.480Z,4.25
2023-02-14T15:30:33.999Z,4.21
2023-02-14T15:33:03.471Z,4.16
2023-02-14T15:35:37.382Z,4.12
2023-02-14T15:38:06.944Z,4.06
2023-02-14T15:40:35.707Z,4.03
2023-02-14T15:43:32.067Z,3.95
2023-02-14T15:46:15.281Z,3.88
2023-02-14T15:48:46.038Z,3.86
2023-02-14T15:51:21.866Z,3.83
2023-02-14T15:53:59.608Z,3.77
2023-02-14T15:56:34.960Z,3.73
2023-02-14T15:59:07.730Z,3.67
2023-02-14T16:01:56.091Z,3.65
2023-02-14T16:04:34.065Z,3.54
2023-02-14T16:07:25.854Z,3.48
2023-02-14T16:10:18.213Z,3.42
2023-02-14T16:12:57.600Z,3.37
2023-02-14T16:15:38.933Z,3.33
2023-02-14T16:18:19.002Z,3.28
2023-02-14T16:20:48.897Z,3.23
2023-02-14T16:23:21.470Z,3.16
2023-02-14T16:25:57.320Z,3.07
2023-02-14T16:28:30.816Z,2.99
2023-02-14T16:31:00.208Z,2.90
2023-02-14T16:33:30.326Z,2.84
2023-02-14T16:36:06.473Z,2.77
2023-02-14T16:38:41.413Z,2.68
2023-02-14T16:41:20.888Z,2.56
2023-02-14T16:43:50.360Z,2.65
2023-02-14T16:46:22.604Z,2.60
2023-02-14T16:48:52.659Z,2.51
2023-02-14T16:51:27.197Z,2.38
2023-02-14T16:53:58.543Z,2.34
2023-02-14T16:56:47.840Z,2.37
2023-02-14T16:59:14.421Z,2.26
2023-02-14T17:01:43.397Z,2.17
2023-02-14T17:04:12.978Z,2.08
2023-02-14T17:06:43.706Z,1.98
2023-02-14T17:09:15.577Z,2.12
2023-02-14T17:11:48.314Z,2.06
2023-02-14T17:14:21.326Z,2.01
2023-02-14T17:16:48.007Z,1.86
2023-02-14T17:19:21.219Z,1.75
2023-02-14T17:21:48.596Z,1.89
2023-02-14T17:24:15.882Z,1.86
2023-02-14T17:26:45.516Z,1.78
2023-02-14T17:29:14.218Z,1.67
2023-02-14T17:31:46.175Z,1.54
2023-02-14T17:34:16.124Z,1.54
2023-02-14T17:36:44.936Z,1.65
2023-02-14T17:39:11.563Z,1.63
2023-02-14T17:41:43.366Z,1.56
2023-02-14T17:44:10.164Z,1.64
2023-02-14T17:46:41.576Z,1.61
2023-02-14T17:49:09.947Z,1.63
2023-02-14T17:51:44.121Z,1.65
2023-02-14T17:54:10.830Z,1.60
2023-02-14T17:56:57.560Z,1.62
2023-02-14T17:59:24.472Z,1.74
2023-02-14T18:01:51.031Z,1.66
2023-02-14T18:04:30.135Z,1.70
2023-02-14T18:06:59.462Z,1.69
2023-02-14T18:09:32.367Z,1.70
2023-02-14T18:12:04.534Z,1.70
2023-02-14T18:14:31.382Z,1.68
2023-02-14T18:17:00.655Z,1.69
2023-02-14T18:19:28.305Z,1.71
2023-02-14T18:21:54.862Z,1.67
2023-02-14T18:24:32.787Z,1.70
2023-02-14T18:26:59.313Z,1.69
2023-02-14T18:29:28.314Z,1.71
2023-02-14T18:31:59.623Z,1.69
2023-02-14T18:34:30.203Z,1.66
2023-02-14T18:36:58.344Z,1.58
2023-02-14T18:39:27.308Z,1.55
2023-02-14T18:41:53.766Z,1.58
2023-02-14T18:44:25.128Z,1.55
2023-02-14T18:46:51.734Z,1.57
2023-02-14T18:49:23.954Z,1.57
2023-02-14T18:51:57.331Z,1.57
2023-02-14T18:54:23.847Z,1.55
2023-02-14T18:57:05.076Z,1.59
2023-02-14T18:59:34.093Z,1.59
2023-02-14T19:02:00.856Z,1.63
2023-02-14T19:04:27.458Z,1.63
2023-02-14T19:06:53.972Z,1.60
2023-02-14T19:09:29.469Z,1.59
2023-02-14T19:12:00.206Z,1.61
2023-02-14T19:14:26.885Z,1.58
2023-02-14T19:16:55.736Z,1.53
2023-02-14T19:19:24.776Z,1.48
2023-02-14T19:21:52.129Z,1.44
2023-02-14T19:24:25.730Z,1.45
2023-02-14T19:26:55.104Z,1.43
2023-02-14T19:29:21.958Z,1.52
2023-02-14T19:31:51.383Z,1.51
2023-02-14T19:34:33.355Z,1.48
2023-02-14T19:37:01.270Z,1.41
2023-02-14T19:39:31.332Z,1.47
2023-02-14T19:41:58.925Z,1.46
2023-02-14T19:44:31.345Z,1.45
2023-02-14T19:47:09.813Z,1.44
2023-02-14T19:49:44.717Z,1.47
2023-02-14T19:52:25.812Z,1.51
2023-02-14T19:54:53.177Z,1.54
2023-02-14T19:57:22.340Z,1.50
2023-02-14T19:59:53.289Z,1.55
2023-02-14T20:02:23.589Z,1.50
2023-02-14T20:04:50.192Z,1.51
2023-02-14T20:07:19.046Z,1.54
2023-02-14T20:09:45.585Z,1.55
2023-02-14T20:12:16.931Z,1.51
2023-02-14T20:14:51.139Z,1.52
2023-02-14T20:17:32.004Z,1.48
2023-02-14T20:19:58.927Z,1.51
2023-02-14T20:22:25.696Z,1.54
2023-02-14T20:25:02.271Z,1.48
2023-02-14T20:27:33.529Z,1.45
2023-02-14T20:30:00.217Z,1.44
2023-02-14T20:32:29.774Z,1.45
2023-02-14T20:34:57.882Z,1.44
2023-02-14T20:37:27.664Z,1.52
2023-02-14T20:39:54.308Z,1.42
2023-02-14T20:42:24.233Z,1.39
2023-02-14T20:44:50.709Z,1.37
2023-02-14T20:47:17.550Z,1.40
2023-02-14T20:49:44.804Z,1.42
2023-02-14T20:52:13.608Z,1.42
2023-02-14T20:54:40.219Z,1.44
2023-02-14T20:57:06.890Z,1.47
2023-02-14T20:59:33.570Z,1.40
2023-02-14T21:02:00.516Z,1.39
2023-02-14T21:04:30.548Z,1.38
2023-02-14T21:07:07.660Z,1.36
2023-02-14T21:09:34.711Z,1.34
2023-02-14T21:12:04.719Z,1.35
2023-02-14T21:14:31.143Z,1.33
2023-02-14T21:16:58.963Z,1.34
2023-02-14T21:19:28.601Z,1.35
2023-02-14T21:21:58.065Z,1.35
2023-02-14T21:24:24.761Z,1.31
2023-02-14T21:26:51.310Z,1.27
2023-02-14T21:29:19.684Z,1.28
2023-02-14T21:31:46.455Z,1.26
2023-02-14T21:34:15.160Z,1.21
2023-02-14T21:36:42.316Z,1.25
2023-02-14T21:39:11.732Z,1.23
2023-02-14T21:41:38.327Z,1.22
2023-02-14T21:44:07.741Z,1.24
2023-02-14T21:46:38.541Z,1.24
2023-02-14T21:49:24.458Z,1.21
2023-02-14T21:51:56.139Z,1.20
2023-02-14T21:54:25.592Z,1.22
2023-02-14T21:56:52.233Z,1.17
2023-02-14T21:59:21.411Z,1.13
2023-02-14T22:01:49.813Z,1.05
2023-02-14T22:04:18.904Z,1.11
2023-02-14T22:06:45.368Z,1.07
2023-02-14T22:09:17.508Z,1.08
2023-02-14T22:11:45.377Z,1.08
2023-02-14T22:14:17.482Z,1.10
2023-02-14T22:16:56.054Z,1.08
2023-02-14T22:19:22.847Z,1.08
2023-02-14T22:21:49.298Z,1.17
2023-02-14T22:24:15.951Z,1.14
2023-02-14T22:26:47.446Z,1.18
2023-02-14T22:29:14.015Z,1.19
2023-02-14T22:31:42.949Z,1.19
2023-02-14T22:34:12.149Z,1.20
2023-02-14T22:36:48.669Z,1.21
2023-02-14T22:39:25.432Z,1.26
2023-02-14T22:41:54.877Z,1.14
2023-02-14T22:44:24.279Z,1.19
2023-02-14T22:46:50.690Z,1.14
2023-02-14T22:49:17.566Z,1.15
2023-02-14T22:51:46.446Z,1.16
2023-02-14T22:54:16.276Z,1.13
2023-02-14T22:56:51.670Z,1.23
2023-02-14T22:59:21.691Z,1.15
2023-02-14T23:01:49.710Z,1.21
2023-02-14T23:04:22.718Z,1.16
2023-02-14T23:06:52.751Z,1.17
2023-02-14T23:09:22.542Z,1.15
2023-02-14T23:11:52.435Z,1.14
2023-02-14T23:14:38.127Z,1.19
2023-02-14T23:17:14.609Z,1.18
2023-02-14T23:20:00.518Z,1.15
2023-02-14T23:22:42.070Z,1.13
2023-02-14T23:25:11.630Z,1.16
2023-02-14T23:27:47.321Z,1.13
2023-02-14T23:30:16.958Z,1.06
2023-02-14T23:32:51.061Z,1.15
2023-02-14T23:35:17.720Z,1.07
2023-02-14T23:37:46.104Z,1.10
2023-02-14T23:40:15.392Z,1.11
2023-02-14T23:42:44.245Z,1.06
2023-02-14T23:45:39.560Z,1.05
2023-02-14T23:48:06.245Z,1.07
2023-02-14T23:50:32.706Z,1.02
2023-02-14T23:52:59.802Z,1.07
2023-02-14T23:55:28.662Z,1.08
2023-02-14T23:57:55.273Z,1.09
